createdAt,value
2023-04-30T00:01:21.295Z,0.40
2023-04-30T00:06:23.232Z,0.40
2023-04-30T00:11:25.722Z,0.40
2023-04-30T00:16:27.567Z,0.40
2023-04-30T00:21:29.564Z,0.40
2023-04-30T00:26:31.323Z,0.40
2023-04-30T00:31:33.118Z,0.40
2023-04-30T00:36:34.918Z,0.40
2023-04-30T00:41:37.216Z,0.35
2023-04-30T00:46:38.979Z,0.40
2023-04-30T00:51:44.509Z,0.40
2023-04-30T00:56:47.000Z,0.30
2023-04-30T01:01:48.837Z,0.40
2023-04-30T01:06:50.790Z,0.40
2023-04-30T01:12:00.768Z,0.40
2023-04-30T01:17:16.818Z,0.40
2023-04-30T01:22:27.588Z,0.35
2023-04-30T01:27:50.758Z,0.40
2023-04-30T01:32:52.560Z,0.40
2023-04-30T01:38:08.466Z,0.40
2023-04-30T01:43:45.673Z,0.40
2023-04-30T01:49:11.196Z,0.40
2023-04-30T01:54:18.241Z,0.40
2023-04-30T01:59:20.732Z,0.40
2023-04-30T02:04:22.467Z,0.40
2023-04-30T02:09:24.723Z,0.40
2023-04-30T02:14:26.487Z,0.30
2023-04-30T02:19:28.258Z,0.40
2023-04-30T02:24:30.379Z,0.40
2023-04-30T02:29:32.143Z,0.40
2023-04-30T02:34:33.854Z,0.40
2023-04-30T02:39:35.634Z,0.40
2023-04-30T02:44:37.383Z,0.40
2023-04-30T02:49:40.005Z,0.40
2023-04-30T02:54:42.886Z,0.40
2023-04-30T02:59:46.463Z,0.40
2023-04-30T03:04:48.477Z,0.40
2023-04-30T03:09:50.402Z,0.40
2023-04-30T03:14:52.392Z,0.30
2023-04-30T03:19:54.357Z,0.32
2023-04-30T03:24:56.532Z,0.40
2023-04-30T03:29:58.246Z,0.40
2023-04-30T03:35:00.293Z,0.40
2023-04-30T03:40:02.030Z,0.30
2023-04-30T03:45:04.290Z,0.32
2023-04-30T03:50:07.351Z,0.40
2023-04-30T03:55:09.565Z,0.40
2023-04-30T04:00:13.394Z,0.40
2023-04-30T04:05:15.397Z,0.40
2023-04-30T04:10:17.184Z,0.43
2023-04-30T04:15:19.052Z,0.40
2023-04-30T04:20:20.774Z,0.40
2023-04-30T04:25:25.198Z,0.43
2023-04-30T04:30:27.340Z,0.43
2023-04-30T04:35:29.088Z,0.40
2023-04-30T04:40:31.748Z,0.40
2023-04-30T04:45:33.863Z,0.30
2023-04-30T04:50:36.177Z,0.40
2023-04-30T04:55:38.733Z,0.40
2023-04-30T05:00:40.522Z,0.40
2023-04-30T05:05:43.163Z,0.50
2023-04-30T05:10:44.927Z,0.50
2023-04-30T05:15:47.811Z,0.40
2023-04-30T05:20:49.609Z,0.40
2023-04-30T05:25:55.437Z,0.50
2023-04-30T05:30:57.165Z,0.50
2023-04-30T05:35:58.858Z,0.50
2023-04-30T05:41:00.858Z,0.50
2023-04-30T05:46:02.980Z,0.50
2023-04-30T05:51:06.697Z,0.50
2023-04-30T05:56:09.000Z,0.50
2023-04-30T06:01:11.152Z,0.50
2023-04-30T06:06:12.952Z,0.50
2023-04-30T06:11:15.340Z,0.50
2023-04-30T06:16:17.322Z,0.40
2023-04-30T06:21:20.457Z,0.45
2023-04-30T06:26:22.236Z,0.40
2023-04-30T06:31:24.203Z,0.40
2023-04-30T06:36:25.948Z,0.50
2023-04-30T06:41:27.750Z,0.50
2023-04-30T06:46:29.509Z,0.50
2023-04-30T06:51:31.448Z,0.50
2023-04-30T06:56:33.144Z,0.50
2023-04-30T07:01:34.901Z,0.50
2023-04-30T07:06:36.902Z,0.60
2023-04-30T07:11:40.164Z,0.60
2023-04-30T07:16:41.886Z,0.60
2023-04-30T07:21:43.650Z,0.60
2023-04-30T07:26:45.842Z,0.40
2023-04-30T07:31:47.880Z,0.50
2023-04-30T07:36:49.810Z,0.50
2023-04-30T07:41:51.606Z,0.50
2023-04-30T07:46:53.321Z,0.60
2023-04-30T07:51:55.091Z,0.60
2023-04-30T07:56:56.925Z,0.50
2023-04-30T08:01:59.191Z,0.50
2023-04-30T08:07:02.147Z,0.45
2023-04-30T08:12:05.102Z,0.50
2023-04-30T08:17:06.927Z,0.50
2023-04-30T08:22:08.853Z,0.50
2023-04-30T08:27:10.658Z,0.50
2023-04-30T08:32:12.746Z,0.50
2023-04-30T08:37:14.637Z,0.60
2023-04-30T08:42:18.980Z,0.50
2023-04-30T08:47:21.495Z,0.60
2023-04-30T08:52:24.957Z,0.50
2023-04-30T08:57:27.151Z,0.60
2023-04-30T09:02:28.943Z,0.45
2023-04-30T09:07:33.682Z,0.57
2023-04-30T09:12:37.106Z,0.52
2023-04-30T09:17:39.321Z,0.60
2023-04-30T09:22:42.164Z,0.47
2023-04-30T09:27:45.643Z,0.43
2023-04-30T09:32:57.029Z,0.40
2023-04-30T09:38:02.721Z,0.50
2023-04-30T09:43:05.163Z,0.50
2023-04-30T09:48:16.868Z,0.50
2023-04-30T09:53:20.742Z,0.60
2023-04-30T09:58:24.425Z,0.50
2023-04-30T10:03:26.565Z,0.50
2023-04-30T10:08:36.364Z,0.50
2023-04-30T10:13:47.091Z,0.45
2023-04-30T10:18:51.861Z,0.50
2023-04-30T10:23:54.848Z,0.50
2023-04-30T10:28:59.046Z,0.50
2023-04-30T10:34:35.742Z,0.50
2023-04-30T10:39:38.797Z,0.40
2023-04-30T10:44:40.699Z,0.40
2023-04-30T10:49:48.298Z,0.40
2023-04-30T10:54:51.843Z,0.40
2023-04-30T11:00:15.208Z,0.40
2023-04-30T11:05:18.562Z,0.40
2023-04-30T11:10:26.399Z,0.40
2023-04-30T11:15:34.708Z,0.40
2023-04-30T11:20:51.732Z,0.40
2023-04-30T11:25:57.774Z,0.40
2023-04-30T11:31:00.745Z,0.40
2023-04-30T11:36:03.399Z,0.40
2023-04-30T11:41:05.668Z,0.40
2023-04-30T11:46:13.193Z,0.40
2023-04-30T11:51:20.474Z,0.40
2023-04-30T11:56:24.483Z,0.40
2023-04-30T12:01:28.076Z,0.30
2023-04-30T12:06:31.393Z,0.40
2023-04-30T12:11:34.294Z,0.40
2023-04-30T12:16:52.799Z,0.40
2023-04-30T12:21:55.359Z,0.40
2023-04-30T12:27:00.843Z,0.40
2023-04-30T12:32:03.529Z,0.40
2023-04-30T12:37:06.051Z,0.40
2023-04-30T12:42:08.280Z,0.40
2023-04-30T12:47:10.337Z,0.47
2023-04-30T12:52:13.587Z,0.40
2023-04-30T12:57:15.474Z,0.50
2023-04-30T13:02:17.252Z,0.40
2023-04-30T13:07:19.222Z,0.40
2023-04-30T13:12:20.972Z,0.40
2023-04-30T13:17:23.355Z,0.40
2023-04-30T13:22:29.512Z,0.40
2023-04-30T13:27:31.257Z,0.40
2023-04-30T13:32:33.728Z,0.40
2023-04-30T13:37:42.273Z,0.40
2023-04-30T13:42:46.101Z,0.40
2023-04-30T13:47:47.800Z,0.40
2023-04-30T13:52:49.564Z,0.40
2023-04-30T13:57:51.273Z,0.40
2023-04-30T14:02:53.289Z,0.40
2023-04-30T14:07:55.082Z,0.40
2023-04-30T14:12:56.770Z,0.40
2023-04-30T14:17:58.830Z,0.40
2023-04-30T14:23:02.651Z,0.40
2023-04-30T14:28:04.536Z,0.40
2023-04-30T14:33:06.602Z,0.40
2023-04-30T14:38:08.372Z,0.30
2023-04-30T14:43:10.080Z,0.40
2023-04-30T14:48:15.036Z,0.40
2023-04-30T14:53:16.802Z,0.40
2023-04-30T14:58:20.082Z,0.30
2023-04-30T15:03:21.985Z,0.40
2023-04-30T15:08:24.133Z,0.40
2023-04-30T15:13:25.897Z,0.30
2023-04-30T15:18:27.717Z,0.40
2023-04-30T15:23:30.494Z,0.40
2023-04-30T15:28:32.838Z,0.40
2023-04-30T15:33:40.401Z,0.40
2023-04-30T15:38:42.323Z,0.30
2023-04-30T15:43:44.142Z,0.40
2023-04-30T15:48:45.916Z,0.40
2023-04-30T15:53:47.773Z,0.40
2023-04-30T15:58:50.746Z,0.35
2023-04-30T16:03:52.944Z,0.30
2023-04-30T16:08:54.937Z,0.40
2023-04-30T16:13:56.653Z,0.30
2023-04-30T16:18:58.370Z,0.30
2023-04-30T16:24:00.559Z,0.40
2023-04-30T16:29:03.549Z,0.38
2023-04-30T16:34:05.373Z,0.30
2023-04-30T16:39:07.105Z,0.40
2023-04-30T16:44:11.228Z,0.30
2023-04-30T16:49:12.946Z,0.40
2023-04-30T16:54:14.738Z,0.40
2023-04-30T16:59:16.481Z,0.40
2023-04-30T17:04:18.377Z,0.30
2023-04-30T17:09:20.090Z,0.38
2023-04-30T17:14:22.645Z,0.30
2023-04-30T17:19:24.417Z,0.30
2023-04-30T17:24:26.149Z,0.30
2023-04-30T17:29:27.912Z,0.30
2023-04-30T17:34:30.417Z,0.40
2023-04-30T17:39:35.069Z,0.30
2023-04-30T17:44:36.812Z,0.30
2023-04-30T17:49:38.570Z,0.28
2023-04-30T17:54:40.352Z,0.30
2023-04-30T17:59:42.077Z,0.30
2023-04-30T18:04:45.190Z,0.30
2023-04-30T18:09:47.384Z,0.30
2023-04-30T18:14:49.269Z,0.30
2023-04-30T18:19:51.069Z,0.30
2023-04-30T18:24:53.345Z,0.28
2023-04-30T18:29:56.739Z,0.30
2023-04-30T18:34:58.891Z,0.40
2023-04-30T18:40:00.661Z,0.30
2023-04-30T18:45:02.429Z,0.40
2023-04-30T18:50:04.500Z,0.30
2023-04-30T18:55:10.793Z,0.30
2023-04-30T19:00:14.222Z,0.30
2023-04-30T19:05:16.531Z,0.30
2023-04-30T19:10:18.360Z,0.30
2023-04-30T19:15:20.060Z,0.30
2023-04-30T19:20:21.917Z,0.30
2023-04-30T19:25:23.658Z,0.30
2023-04-30T19:30:25.451Z,0.22
2023-04-30T19:35:27.683Z,0.40
2023-04-30T19:40:29.446Z,0.20
2023-04-30T19:45:31.650Z,0.30
2023-04-30T19:50:33.477Z,0.30
2023-04-30T19:55:35.379Z,0.30
2023-04-30T20:00:38.307Z,0.30
2023-04-30T20:05:40.428Z,0.30
2023-04-30T20:10:42.859Z,0.30
2023-04-30T20:15:44.637Z,0.30
2023-04-30T20:20:47.358Z,0.25
2023-04-30T20:25:50.148Z,0.30
2023-04-30T20:30:51.958Z,0.30
2023-04-30T20:35:53.965Z,0.30
2023-04-30T20:40:58.037Z,0.20
2023-04-30T20:46:00.154Z,0.30
2023-04-30T20:51:01.858Z,0.30
2023-04-30T20:56:04.427Z,0.30
2023-04-30T21:01:06.905Z,0.30
2023-04-30T21:06:08.691Z,0.22
2023-04-30T21:11:10.511Z,0.30
2023-04-30T21:16:12.443Z,0.30
2023-04-30T21:21:14.478Z,0.30
2023-04-30T21:26:16.600Z,0.30
2023-04-30T21:31:18.389Z,0.30
2023-04-30T21:36:21.421Z,0.20
2023-04-30T21:41:24.631Z,0.20
2023-04-30T21:46:26.491Z,0.30
2023-04-30T21:51:28.239Z,0.28
2023-04-30T21:56:30.030Z,0.30
2023-04-30T22:01:36.940Z,0.30
2023-04-30T22:06:38.817Z,0.28
2023-04-30T22:11:41.743Z,0.30
2023-04-30T22:16:43.720Z,0.28
2023-04-30T22:21:45.677Z,0.30
2023-04-30T22:26:47.429Z,0.30
2023-04-30T22:31:49.232Z,0.30
2023-04-30T22:36:51.339Z,0.30
2023-04-30T22:41:54.061Z,0.30
2023-04-30T22:46:58.111Z,0.30
2023-04-30T22:52:00.812Z,0.22
2023-04-30T22:57:03.121Z,0.30
2023-04-30T23:02:05.751Z,0.30
2023-04-30T23:07:07.582Z,0.20
2023-04-30T23:12:09.493Z,0.30
2023-04-30T23:17:11.493Z,0.30
2023-04-30T23:22:13.361Z,0.30
2023-04-30T23:27:15.158Z,0.35
2023-04-30T23:32:17.228Z,0.28
2023-04-30T23:37:19.256Z,0.20
2023-04-30T23:42:20.990Z,0.30
2023-04-30T23:47:23.095Z,0.30
2023-04-30T23:52:25.206Z,0.30
2023-04-30T23:57:28.099Z,0.30
